sensor_id;sensor_type;location;lat;lon;timestamp;pressure;altitude;pressure_sealevel;temperature;humidity
27425;BME280;15244;49.088;11.886;2023-11-19T00:02:24;95822.19;;;8.09;57.38
27425;BME280;15244;49.088;11.886;2023-11-19T00:07:26;95814.03;;;8.09;57.35
27425;BME280;15244;49.088;11.886;2023-11-19T00:12:41;95821.41;;;8.08;57.22
27425;BME280;15244;49.088;11.886;2023-11-19T00:17:45;95808.25;;;8.10;57.01
27425;BME280;15244;49.088;11.886;2023-11-19T00:22:48;95795.38;;;8.07;57.24
27425;BME280;15244;49.088;11.886;2023-11-19T00:27:53;95795.75;;;8.06;57.33
27425;BME280;15244;49.088;11.886;2023-11-19T00:32:55;95780.59;;;8.04;57.35
27425;BME280;15244;49.088;11.886;2023-11-19T00:37:57;95779.47;;;8.06;57.23
27425;BME280;15244;49.088;11.886;2023-11-19T00:43:00;95774.75;;;8.02;57.17
27425;BME280;15244;49.088;11.886;2023-11-19T00:48:02;95768.97;;;8.04;57.34
27425;BME280;15244;49.088;11.886;2023-11-19T00:53:03;95763.56;;;8.08;57.31
27425;BME280;15244;49.088;11.886;2023-11-19T00:58:05;95761.66;;;8.08;57.23
27425;BME280;15244;49.088;11.886;2023-11-19T01:03:07;95755.44;;;8.08;57.58
27425;BME280;15244;49.088;11.886;2023-11-19T01:08:09;95751.16;;;8.07;57.28
27425;BME280;15244;49.088;11.886;2023-11-19T01:13:10;95740.72;;;8.09;57.63
27425;BME280;15244;49.088;11.886;2023-11-19T01:18:12;95735.31;;;8.12;57.52
27425;BME280;15244;49.088;11.886;2023-11-19T01:23:14;95733.81;;;8.15;57.72
27425;BME280;15244;49.088;11.886;2023-11-19T01:28:19;95735.31;;;8.12;57.51
27425;BME280;15244;49.088;11.886;2023-11-19T01:33:21;95733.41;;;8.13;57.95
27425;BME280;15244;49.088;11.886;2023-11-19T01:38:22;95707.81;;;8.14;57.62
27425;BME280;15244;49.088;11.886;2023-11-19T01:43:38;95720.66;;;8.17;57.68
27425;BME280;15244;49.088;11.886;2023-11-19T01:48:45;95718.34;;;8.19;57.89
27425;BME280;15244;49.088;11.886;2023-11-19T01:53:47;95722.28;;;8.21;57.84
27425;BME280;15244;49.088;11.886;2023-11-19T01:58:50;95720.75;;;8.24;57.88
27425;BME280;15244;49.088;11.886;2023-11-19T02:03:52;95712.25;;;8.25;57.81
27425;BME280;15244;49.088;11.886;2023-11-19T02:08:54;95704.09;;;8.25;57.79
27425;BME280;15244;49.088;11.886;2023-11-19T02:13:58;95701.00;;;8.27;57.98
27425;BME280;15244;49.088;11.886;2023-11-19T02:19:00;95685.47;;;8.28;57.70
27425;BME280;15244;49.088;11.886;2023-11-19T02:24:06;95673.84;;;8.27;57.53
27425;BME280;15244;49.088;11.886;2023-11-19T02:29:11;95658.69;;;8.26;57.86
27425;BME280;15244;49.088;11.886;2023-11-19T02:34:15;95643.53;;;8.25;58.14
27425;BME280;15244;49.088;11.886;2023-11-19T02:39:18;95624.94;;;8.27;57.80
27425;BME280;15244;49.088;11.886;2023-11-19T02:44:23;95622.56;;;8.22;57.93
27425;BME280;15244;49.088;11.886;2023-11-19T02:49:25;95631.09;;;8.20;57.96
27425;BME280;15244;49.088;11.886;2023-11-19T02:54:26;95624.84;;;8.20;57.85
27425;BME280;15244;49.088;11.886;2023-11-19T02:59:28;95643.09;;;8.19;58.01
27425;BME280;15244;49.088;11.886;2023-11-19T03:04:40;95618.97;;;8.14;57.75
27425;BME280;15244;49.088;11.886;2023-11-19T03:09:41;95626.72;;;8.12;57.83
27425;BME280;15244;49.088;11.886;2023-11-19T03:14:45;95620.56;;;8.15;58.08
27425;BME280;15244;49.088;11.886;2023-11-19T03:19:49;95621.38;;;8.19;58.26
27425;BME280;15244;49.088;11.886;2023-11-19T03:24:51;95612.09;;;8.20;58.56
27425;BME280;15244;49.088;11.886;2023-11-19T03:29:52;95614.06;;;8.23;58.36
27425;BME280;15244;49.088;11.886;2023-11-19T03:34:54;95608.63;;;8.23;58.22
27425;BME280;15244;49.088;11.886;2023-11-19T03:39:57;95605.16;;;8.27;58.03
27425;BME280;15244;49.088;11.886;2023-11-19T03:45:03;95599.72;;;8.27;58.29
27425;BME280;15244;49.088;11.886;2023-11-19T03:50:06;95605.56;;;8.29;58.09
27425;BME280;15244;49.088;11.886;2023-11-19T03:55:09;95616.03;;;8.27;58.26
27425;BME280;15244;49.088;11.886;2023-11-19T04:00:11;95619.16;;;8.29;58.50
27425;BME280;15244;49.088;11.886;2023-11-19T04:05:15;95614.50;;;8.29;58.55
27425;BME280;15244;49.088;11.886;2023-11-19T04:10:16;95615.28;;;8.30;58.43
27425;BME280;15244;49.088;11.886;2023-11-19T04:15:18;95598.28;;;8.36;58.23
27425;BME280;15244;49.088;11.886;2023-11-19T04:20:20;95592.84;;;8.36;58.67
27425;BME280;15244;49.088;11.886;2023-11-19T04:25:22;95580.47;;;8.39;58.37
27425;BME280;15244;49.088;11.886;2023-11-19T04:30:24;95570.72;;;8.38;58.19
27425;BME280;15244;49.088;11.886;2023-11-19T04:35:28;95565.63;;;8.33;58.04
27425;BME280;15244;49.088;11.886;2023-11-19T04:40:30;95525.22;;;8.28;58.18
27425;BME280;15244;49.088;11.886;2023-11-19T04:45:32;95498.41;;;8.22;57.81
27425;BME280;15244;49.088;11.886;2023-11-19T04:50:33;95509.25;;;8.19;58.39
27425;BME280;15244;49.088;11.886;2023-11-19T04:55:37;95518.47;;;8.11;58.65
27425;BME280;15244;49.088;11.886;2023-11-19T05:00:39;95509.88;;;8.05;58.53
27425;BME280;15244;49.088;11.886;2023-11-19T05:05:40;95508.69;;;8.02;58.71
27425;BME280;15244;49.088;11.886;2023-11-19T05:10:42;95530.34;;;7.95;58.49
27425;BME280;15244;49.088;11.886;2023-11-19T05:15:44;95534.59;;;7.96;58.34
27425;BME280;15244;49.088;11.886;2023-11-19T05:20:45;95563.25;;;7.90;58.79
27425;BME280;15244;49.088;11.886;2023-11-19T05:25:47;95555.03;;;7.87;58.98
27425;BME280;15244;49.088;11.886;2023-11-19T05:30:49;95558.22;;;7.92;59.13
27425;BME280;15244;49.088;11.886;2023-11-19T05:35:53;95560.59;;;7.97;59.14
27425;BME280;15244;49.088;11.886;2023-11-19T05:40:54;95576.59;;;8.06;58.88
27425;BME280;15244;49.088;11.886;2023-11-19T05:45:56;95556.09;;;8.09;58.99
27425;BME280;15244;49.088;11.886;2023-11-19T05:50:58;95542.53;;;8.12;58.98
27425;BME280;15244;49.088;11.886;2023-11-19T05:55:59;95536.75;;;8.14;58.58
27425;BME280;15244;49.088;11.886;2023-11-19T06:01:05;95530.16;;;8.15;58.91
27425;BME280;15244;49.088;11.886;2023-11-19T06:06:09;95532.50;;;8.16;58.74
27425;BME280;15244;49.088;11.886;2023-11-19T06:11:11;95526.28;;;8.16;59.19
27425;BME280;15244;49.088;11.886;2023-11-19T06:16:20;95523.59;;;8.19;58.97
27425;BME280;15244;49.088;11.886;2023-11-19T06:21:22;95518.22;;;8.23;59.20
27425;BME280;15244;49.088;11.886;2023-11-19T06:26:24;95514.69;;;8.22;59.08
27425;BME280;15244;49.088;11.886;2023-11-19T06:31:25;95519.78;;;8.28;59.37
27425;BME280;15244;49.088;11.886;2023-11-19T06:36:27;95519.06;;;8.31;59.49
27425;BME280;15244;49.088;11.886;2023-11-19T06:41:29;95512.88;;;8.34;59.08
27425;BME280;15244;49.088;11.886;2023-11-19T06:46:30;95498.91;;;8.32;59.58
27425;BME280;15244;49.088;11.886;2023-11-19T06:51:33;95500.50;;;8.36;59.52
27425;BME280;15244;49.088;11.886;2023-11-19T06:56:35;95503.97;;;8.37;59.25
27425;BME280;15244;49.088;11.886;2023-11-19T07:01:36;95501.63;;;8.35;59.13
27425;BME280;15244;49.088;11.886;2023-11-19T07:06:38;95514.84;;;8.37;59.62
27425;BME280;15244;49.088;11.886;2023-11-19T07:11:43;95520.34;;;8.40;59.13
27425;BME280;15244;49.088;11.886;2023-11-19T07:16:49;95535.16;;;8.46;59.84
27425;BME280;15244;49.088;11.886;2023-11-19T07:21:51;95541.00;;;8.49;59.87
27425;BME280;15244;49.088;11.886;2023-11-19T07:26:58;95534.81;;;8.52;60.03
27425;BME280;15244;49.088;11.886;2023-11-19T07:32:04;95539.50;;;8.55;60.01
27425;BME280;15244;49.088;11.886;2023-11-19T07:37:06;95531.38;;;8.58;60.05
27425;BME280;15244;49.088;11.886;2023-11-19T07:42:08;95534.88;;;8.59;59.97
27425;BME280;15244;49.088;11.886;2023-11-19T07:47:11;95532.19;;;8.62;60.26
27425;BME280;15244;49.088;11.886;2023-11-19T07:52:14;95533.00;;;8.66;59.79
27425;BME280;15244;49.088;11.886;2023-11-19T07:57:18;95526.44;;;8.71;60.53
27425;BME280;15244;49.088;11.886;2023-11-19T08:02:20;95526.88;;;8.77;60.25
27425;BME280;15244;49.088;11.886;2023-11-19T08:07:21;95520.66;;;8.76;60.06
27425;BME280;15244;49.088;11.886;2023-11-19T08:12:26;95524.19;;;8.80;60.44
27425;BME280;15244;49.088;11.886;2023-11-19T08:17:27;95531.22;;;8.88;60.59
27425;BME280;15244;49.088;11.886;2023-11-19T08:22:29;95517.69;;;8.96;60.62
27425;BME280;15244;49.088;11.886;2023-11-19T08:27:31;95521.22;;;9.00;60.51
27425;BME280;15244;49.088;11.886;2023-11-19T08:32:33;95520.47;;;9.03;60.74
27425;BME280;15244;49.088;11.886;2023-11-19T08:37:35;95525.19;;;9.09;60.85
27425;BME280;15244;49.088;11.886;2023-11-19T08:42:38;95517.84;;;9.17;60.59
27425;BME280;15244;49.088;11.886;2023-11-19T08:47:40;95519.44;;;9.22;60.89
27425;BME280;15244;49.088;11.886;2023-11-19T08:52:42;95514.41;;;9.27;61.27
27425;BME280;15244;49.088;11.886;2023-11-19T08:57:44;95520.66;;;9.35;61.10
27425;BME280;15244;49.088;11.886;2023-11-19T09:02:47;95514.88;;;9.44;61.19
27425;BME280;15244;49.088;11.886;2023-11-19T09:07:52;95515.69;;;9.51;61.35
27425;BME280;15244;49.088;11.886;2023-11-19T09:12:54;95510.69;;;9.57;61.11
27425;BME280;15244;49.088;11.886;2023-11-19T09:17:59;95509.91;;;9.64;61.58
27425;BME280;15244;49.088;11.886;2023-11-19T09:23:01;95521.63;;;9.71;62.37
27425;BME280;15244;49.088;11.886;2023-11-19T09:28:02;95515.47;;;9.89;62.82
27425;BME280;15244;49.088;11.886;2023-11-19T09:33:04;95520.19;;;10.03;64.31
27425;BME280;15244;49.088;11.886;2023-11-19T09:38:09;95504.66;;;10.21;64.54
27425;BME280;15244;49.088;11.886;2023-11-19T09:43:10;95496.56;;;10.46;64.03
27425;BME280;15244;49.088;11.886;2023-11-19T09:48:12;95500.84;;;10.58;64.59
27425;BME280;15244;49.088;11.886;2023-11-19T09:53:14;95498.13;;;10.79;64.74
27425;BME280;15244;49.088;11.886;2023-11-19T09:58:17;95503.97;;;10.92;65.98
27425;BME280;15244;49.088;11.886;2023-11-19T10:03:18;95513.28;;;11.13;65.95
27425;BME280;15244;49.088;11.886;2023-11-19T10:08:20;95506.63;;;11.35;65.74
27425;BME280;15244;49.088;11.886;2023-11-19T10:13:29;95504.22;;;11.52;65.67
27425;BME280;15244;49.088;11.886;2023-11-19T10:18:33;95482.34;;;11.66;65.71
27425;BME280;15244;49.088;11.886;2023-11-19T10:23:52;95485.81;;;11.88;65.60
27425;BME280;15244;49.088;11.886;2023-11-19T10:28:55;95494.72;;;11.99;65.54
27425;BME280;15244;49.088;11.886;2023-11-19T10:33:57;95498.56;;;12.09;65.49
27425;BME280;15244;49.088;11.886;2023-11-19T10:38:58;95504.78;;;12.17;65.51
27425;BME280;15244;49.088;11.886;2023-11-19T10:44:00;95482.16;;;12.12;65.39
27425;BME280;15244;49.088;11.886;2023-11-19T10:49:02;95483.31;;;12.15;65.41
27425;BME280;15244;49.088;11.886;2023-11-19T10:54:05;95487.22;;;12.14;65.50
27425;BME280;15244;49.088;11.886;2023-11-19T10:59:07;95472.72;;;12.24;64.92
27425;BME280;15244;49.088;11.886;2023-11-19T11:04:19;95477.75;;;12.29;65.07
27425;BME280;15244;49.088;11.886;2023-11-19T11:09:26;95483.19;;;12.33;65.44
27425;BME280;15244;49.088;11.886;2023-11-19T11:14:28;95470.69;;;12.35;65.03
27425;BME280;15244;49.088;11.886;2023-11-19T11:19:30;95482.69;;;12.52;64.93
27425;BME280;15244;49.088;11.886;2023-11-19T11:24:45;95466.25;;;12.56;65.05
27425;BME280;15244;49.088;11.886;2023-11-19T11:40:17;95459.50;;;12.68;65.40
27425;BME280;15244;49.088;11.886;2023-11-19T11:45:45;95450.03;;;12.79;65.22
27425;BME280;15244;49.088;11.886;2023-11-19T11:50:49;95470.69;;;12.88;65.04
27425;BME280;15244;49.088;11.886;2023-11-19T11:55:53;95470.28;;;12.86;65.25
27425;BME280;15244;49.088;11.886;2023-11-19T12:00:58;95460.06;;;12.93;64.87
27425;BME280;15244;49.088;11.886;2023-11-19T12:06:01;95453.38;;;12.98;64.70
27425;BME280;15244;49.088;11.886;2023-11-19T12:11:03;95464.66;;;13.04;64.64
27425;BME280;15244;49.088;11.886;2023-11-19T12:21:06;95439.50;;;13.19;64.49
27425;BME280;15244;49.088;11.886;2023-11-19T12:26:30;95450.03;;;13.21;64.44
27425;BME280;15244;49.088;11.886;2023-11-19T12:31:33;95416.22;;;13.38;64.04
27425;BME280;15244;49.088;11.886;2023-11-19T12:36:37;95425.13;;;13.46;64.20
27425;BME280;15244;49.088;11.886;2023-11-19T12:41:49;95412.13;;;13.54;63.97
27425;BME280;15244;49.088;11.886;2023-11-19T12:47:11;95413.28;;;13.56;63.94
27425;BME280;15244;49.088;11.886;2023-11-19T12:52:14;95393.03;;;13.77;63.96
27425;BME280;15244;49.088;11.886;2023-11-19T12:57:16;95398.78;;;13.86;63.49
27425;BME280;15244;49.088;11.886;2023-11-19T13:02:20;95383.19;;;13.83;62.63
27425;BME280;15244;49.088;11.886;2023-11-19T13:07:21;95385.06;;;13.90;62.63
27425;BME280;15244;49.088;11.886;2023-11-19T13:12:23;95375.09;;;14.00;62.34
27425;BME280;15244;49.088;11.886;2023-11-19T13:17:25;95392.66;;;14.06;62.08
27425;BME280;15244;49.088;11.886;2023-11-19T13:22:27;95388.88;;;13.96;61.50
27425;BME280;15244;49.088;11.886;2023-11-19T13:27:28;95381.13;;;13.91;61.32
27425;BME280;15244;49.088;11.886;2023-11-19T13:32:30;95400.09;;;13.78;61.17
27425;BME280;15244;49.088;11.886;2023-11-19T13:37:32;95369.88;;;13.82;61.31
27425;BME280;15244;49.088;11.886;2023-11-19T13:42:33;95361.66;;;13.82;61.07
27425;BME280;15244;49.088;11.886;2023-11-19T13:47:35;95362.31;;;13.93;60.98
27425;BME280;15244;49.088;11.886;2023-11-19T13:52:38;95359.81;;;14.02;60.64
27425;BME280;15244;49.088;11.886;2023-11-19T13:57:41;95354.50;;;14.15;60.60
27425;BME280;15244;49.088;11.886;2023-11-19T14:02:46;95346.63;;;14.21;60.26
27425;BME280;15244;49.088;11.886;2023-11-19T14:07:51;95351.44;;;14.37;60.27
27425;BME280;15244;49.088;11.886;2023-11-19T14:12:53;95359.19;;;14.42;59.46
27425;BME280;15244;49.088;11.886;2023-11-19T14:17:54;95353.97;;;14.51;58.93
27425;BME280;15244;49.088;11.886;2023-11-19T14:22:56;95348.88;;;14.49;57.69
27425;BME280;15244;49.088;11.886;2023-11-19T14:27:58;95356.44;;;14.42;57.49
27425;BME280;15244;49.088;11.886;2023-11-19T14:33:01;95369.75;;;14.43;57.53
27425;BME280;15244;49.088;11.886;2023-11-19T14:38:03;95368.06;;;14.49;57.30
27425;BME280;15244;49.088;11.886;2023-11-19T14:43:09;95368.56;;;14.44;56.57
27425;BME280;15244;49.088;11.886;2023-11-19T14:48:13;95370.16;;;14.42;56.44
27425;BME280;15244;49.088;11.886;2023-11-19T14:53:15;95368.66;;;14.37;56.52
27425;BME280;15244;49.088;11.886;2023-11-19T14:58:17;95352.22;;;14.37;56.61
27425;BME280;15244;49.088;11.886;2023-11-19T15:03:21;95364.88;;;14.31;56.77
27425;BME280;15244;49.088;11.886;2023-11-19T15:08:26;95360.97;;;14.28;57.01
27425;BME280;15244;49.088;11.886;2023-11-19T15:13:28;95352.81;;;14.25;56.99
27425;BME280;15244;49.088;11.886;2023-11-19T15:18:29;95351.38;;;14.17;56.92
27425;BME280;15244;49.088;11.886;2023-11-19T15:23:34;95348.81;;;14.06;56.91
27425;BME280;15244;49.088;11.886;2023-11-19T15:28:36;95354.38;;;13.99;56.77
27425;BME280;15244;49.088;11.886;2023-11-19T15:33:38;95364.69;;;13.91;56.56
27425;BME280;15244;49.088;11.886;2023-11-19T15:38:40;95361.66;;;13.82;56.33
27425;BME280;15244;49.088;11.886;2023-11-19T15:43:45;95338.22;;;13.81;56.45
27425;BME280;15244;49.088;11.886;2023-11-19T15:48:47;95352.75;;;13.78;56.40
27425;BME280;15244;49.088;11.886;2023-11-19T15:53:48;95348.59;;;13.66;56.02
27425;BME280;15244;49.088;11.886;2023-11-19T15:58:50;95347.31;;;13.43;55.28
27425;BME280;15244;49.088;11.886;2023-11-19T16:03:51;95356.66;;;13.46;55.63
27425;BME280;15244;49.088;11.886;2023-11-19T16:08:56;95366.84;;;13.46;55.49
27425;BME280;15244;49.088;11.886;2023-11-19T16:13:58;95377.81;;;13.46;55.48
27425;BME280;15244;49.088;11.886;2023-11-19T16:18:59;95392.66;;;13.48;55.60
27425;BME280;15244;49.088;11.886;2023-11-19T16:24:01;95374.44;;;13.34;55.41
27425;BME280;15244;49.088;11.886;2023-11-19T16:29:04;95401.03;;;13.34;55.54
27425;BME280;15244;49.088;11.886;2023-11-19T16:34:08;95373.66;;;13.34;55.57
27425;BME280;15244;49.088;11.886;2023-11-19T16:39:11;95375.28;;;13.24;55.76
27425;BME280;15244;49.088;11.886;2023-11-19T16:44:17;95379.22;;;13.23;55.66
27425;BME280;15244;49.088;11.886;2023-11-19T16:49:19;95374.09;;;13.29;56.18
27425;BME280;15244;49.088;11.886;2023-11-19T16:54:20;95378.41;;;13.30;55.82
27425;BME280;15244;49.088;11.886;2023-11-19T16:59:23;95385.81;;;13.29;55.71
27425;BME280;15244;49.088;11.886;2023-11-19T17:04:24;95388.97;;;13.24;55.78
27425;BME280;15244;49.088;11.886;2023-11-19T17:09:28;95391.00;;;13.20;56.02
27425;BME280;15244;49.088;11.886;2023-11-19T17:14:30;95389.09;;;13.17;56.04
27425;BME280;15244;49.088;11.886;2023-11-19T17:19:34;95408.63;;;13.15;56.06
27425;BME280;15244;49.088;11.886;2023-11-19T17:24:36;95414.22;;;13.05;56.19
27425;BME280;15244;49.088;11.886;2023-11-19T17:29:38;95425.56;;;13.07;55.97
27425;BME280;15244;49.088;11.886;2023-11-19T17:34:42;95436.44;;;13.10;56.00
27425;BME280;15244;49.088;11.886;2023-11-19T17:39:45;95444.41;;;12.97;55.99
27425;BME280;15244;49.088;11.886;2023-11-19T17:44:46;95422.47;;;13.01;56.13
27425;BME280;15244;49.088;11.886;2023-11-19T17:49:48;95429.44;;;13.09;55.80
27425;BME280;15244;49.088;11.886;2023-11-19T17:54:52;95422.81;;;13.07;55.50
27425;BME280;15244;49.088;11.886;2023-11-19T17:59:54;95423.97;;;13.09;56.08
27425;BME280;15244;49.088;11.886;2023-11-19T18:04:59;95432.53;;;13.11;55.91
27425;BME280;15244;49.088;11.886;2023-11-19T18:10:01;95452.09;;;13.10;55.95
27425;BME280;15244;49.088;11.886;2023-11-19T18:15:06;95452.06;;;13.13;56.06
27425;BME280;15244;49.088;11.886;2023-11-19T18:20:12;95460.66;;;13.15;56.17
27425;BME280;15244;49.088;11.886;2023-11-19T18:25:15;95451.41;;;13.02;56.60
27425;BME280;15244;49.088;11.886;2023-11-19T18:30:19;95428.47;;;12.85;56.84
27425;BME280;15244;49.088;11.886;2023-11-19T18:35:21;95436.75;;;12.78;57.18
27425;BME280;15244;49.088;11.886;2023-11-19T18:40:25;95462.63;;;12.70;57.10
27425;BME280;15244;49.088;11.886;2023-11-19T18:45:29;95484.91;;;12.68;57.65
27425;BME280;15244;49.088;11.886;2023-11-19T18:50:33;95456.13;;;12.49;57.44
27425;BME280;15244;49.088;11.886;2023-11-19T18:55:52;95453.41;;;12.49;57.30
27425;BME280;15244;49.088;11.886;2023-11-19T19:00:54;95466.25;;;12.56;57.43
27425;BME280;15244;49.088;11.886;2023-11-19T19:05:56;95467.38;;;12.62;57.19
27425;BME280;15244;49.088;11.886;2023-11-19T19:10:58;95448.16;;;12.69;57.00
27425;BME280;15244;49.088;11.886;2023-11-19T19:16:05;95472.69;;;12.80;57.05
27425;BME280;15244;49.088;11.886;2023-11-19T19:21:07;95474.19;;;12.88;56.77
27425;BME280;15244;49.088;11.886;2023-11-19T19:26:08;95475.47;;;12.76;57.11
27425;BME280;15244;49.088;11.886;2023-11-19T19:31:10;95470.16;;;12.58;57.03
27425;BME280;15244;49.088;11.886;2023-11-19T19:36:19;95473.34;;;12.46;56.76
27425;BME280;15244;49.088;11.886;2023-11-19T19:41:23;95478.88;;;12.35;55.98
27425;BME280;15244;49.088;11.886;2023-11-19T19:46:30;95474.25;;;12.29;56.19
27425;BME280;15244;49.088;11.886;2023-11-19T19:51:32;95477.41;;;12.24;55.55
27425;BME280;15244;49.088;11.886;2023-11-19T19:56:36;95491.06;;;12.24;55.60
27425;BME280;15244;49.088;11.886;2023-11-19T20:01:37;95490.31;;;12.23;55.50
27425;BME280;15244;49.088;11.886;2023-11-19T20:06:39;95482.50;;;12.22;55.32
27425;BME280;15244;49.088;11.886;2023-11-19T20:11:41;95491.84;;;12.24;55.59
27425;BME280;15244;49.088;11.886;2023-11-19T20:16:48;95503.16;;;12.26;55.73
27425;BME280;15244;49.088;11.886;2023-11-19T20:22:11;95509.75;;;12.32;55.86
27425;BME280;15244;49.088;11.886;2023-11-19T20:27:13;95514.03;;;12.41;55.77
27425;BME280;15244;49.088;11.886;2023-11-19T20:32:17;95522.97;;;12.45;55.85
27425;BME280;15244;49.088;11.886;2023-11-19T20:37:19;95515.53;;;12.49;55.57
27425;BME280;15244;49.088;11.886;2023-11-19T20:42:21;95511.22;;;12.48;55.90
27425;BME280;15244;49.088;11.886;2023-11-19T20:47:22;95526.84;;;12.47;55.92
27425;BME280;15244;49.088;11.886;2023-11-19T20:52:26;95520.56;;;12.50;55.76
27425;BME280;15244;49.088;11.886;2023-11-19T20:57:28;95515.91;;;12.51;55.85
27425;BME280;15244;49.088;11.886;2023-11-19T21:02:30;95529.16;;;12.52;55.92
27425;BME280;15244;49.088;11.886;2023-11-19T21:07:33;95532.69;;;12.49;56.08
27425;BME280;15244;49.088;11.886;2023-11-19T21:12:34;95532.31;;;12.47;55.86
27425;BME280;15244;49.088;11.886;2023-11-19T21:17:36;95537.00;;;12.47;55.96
27425;BME280;15244;49.088;11.886;2023-11-19T21:22:38;95532.75;;;12.46;55.98
27425;BME280;15244;49.088;11.886;2023-11-19T21:27:40;95526.13;;;12.40;56.16
27425;BME280;15244;49.088;11.886;2023-11-19T21:32:41;95519.50;;;12.37;55.85
27425;BME280;15244;49.088;11.886;2023-11-19T21:37:43;95523.03;;;12.34;56.27
27425;BME280;15244;49.088;11.886;2023-11-19T21:42:44;95512.09;;;12.30;56.29
27425;BME280;15244;49.088;11.886;2023-11-19T21:47:46;95517.22;;;12.28;56.34
27425;BME280;15244;49.088;11.886;2023-11-19T21:52:47;95516.44;;;12.24;56.57
27425;BME280;15244;49.088;11.886;2023-11-19T21:57:51;95494.22;;;12.19;56.45
27425;BME280;15244;49.088;11.886;2023-11-19T22:02:53;95489.56;;;12.12;56.40
27425;BME280;15244;49.088;11.886;2023-11-19T22:07:55;95494.69;;;12.06;56.86
27425;BME280;15244;49.088;11.886;2023-11-19T22:13:16;95508.38;;;11.99;56.95
27425;BME280;15244;49.088;11.886;2023-11-19T22:18:18;95499.78;;;11.97;56.54
27425;BME280;15244;49.088;11.886;2023-11-19T22:23:20;95513.09;;;11.91;56.86
27425;BME280;15244;49.088;11.886;2023-11-19T22:28:25;95521.69;;;11.86;56.83
27425;BME280;15244;49.088;11.886;2023-11-19T22:33:27;95515.84;;;11.77;57.35
27425;BME280;15244;49.088;11.886;2023-11-19T22:38:29;95513.50;;;11.79;56.94
27425;BME280;15244;49.088;11.886;2023-11-19T22:43:31;95512.72;;;11.79;56.88
27425;BME280;15244;49.088;11.886;2023-11-19T22:48:33;95517.00;;;11.80;56.70
27425;BME280;15244;49.088;11.886;2023-11-19T22:53:34;95516.22;;;11.79;56.22
27425;BME280;15244;49.088;11.886;2023-11-19T22:58:36;95511.19;;;11.78;56.26
27425;BME280;15244;49.088;11.886;2023-11-19T23:03:40;95513.13;;;11.81;56.31
27425;BME280;15244;49.088;11.886;2023-11-19T23:08:44;95509.22;;;11.78;56.20
27425;BME280;15244;49.088;11.886;2023-11-19T23:13:45;95512.00;;;11.67;56.35
27425;BME280;15244;49.088;11.886;2023-11-19T23:18:47;95513.94;;;11.63;56.31
27425;BME280;15244;49.088;11.886;2023-11-19T23:23:48;95513.94;;;11.63;56.45
27425;BME280;15244;49.088;11.886;2023-11-19T23:28:50;95518.28;;;11.54;56.38
27425;BME280;15244;49.088;11.886;2023-11-19T23:34:03;95514.00;;;11.49;56.88
27425;BME280;15244;49.088;11.886;2023-11-19T23:39:04;95511.25;;;11.49;56.79
27425;BME280;15244;49.088;11.886;2023-11-19T23:44:08;95514.00;;;11.53;57.03
27425;BME280;15244;49.088;11.886;2023-11-19T23:49:11;95517.13;;;11.55;56.81
27425;BME280;15244;49.088;11.886;2023-11-19T23:54:13;95510.47;;;11.56;56.64
27425;BME280;15244;49.088;11.886;2023-11-19T23:59:15;95505.00;;;11.56;57.06
